Flugplatz Leer-Papenburg

EDWF · Bassa Sassonia, Germania

Storia di METAR EDWF · Flugplatz Leer-Papenburg

Di seguito sono riportati i METAR degli ultimi giorni. Seleziona un anno per sfogliare i METAR più vecchi, dall'anno 2007 in poi.

18 maggio 2024

Tempo Codice Tempo meteorologico Temp. Vista Base nuvolosa Vento METAR/SPECI
21:20
V
15 °C 10 km+ - 030° 030° 6 kt METAR EDWE 181920Z AUTO 03006KT CAVOK 15/09 Q1010
20:50
V
17 °C 10 km+ - 030° 030° 6 kt METAR EDWE 181850Z AUTO 03006KT CAVOK 17/09 Q1010
20:20
V
19 °C 10 km+ - 030° 030° 8 kt METAR EDWE 181820Z AUTO 03008KT CAVOK 19/09 Q1010
19:50
V
20 °C 10 km+ - 030° 030° 11 kt METAR EDWE 181750Z AUTO 03011KT 9999 FEW081/// 20/09 Q1010
19:20
V
21 °C 10 km+ - 020° 020° 12 kt METAR EDWE 181720Z AUTO 02012KT 9999 FEW088/// SCT110/// 21/09 Q1010
18:50
V
21 °C 10 km+ 10.000 ft 030° 030° 13 kt METAR EDWE 181650Z AUTO 03013KT 9999 BKN100/// 21/08 Q1010
18:20
V
21 °C 10 km+ - 030° 030° 10 kt METAR EDWE 181620Z AUTO 03010KT 9999 SCT100/// 21/09 Q1010
17:50
V
21 °C 10 km+ 9.600 ft 050° 050° 11 kt METAR EDWE 181550Z AUTO 05011KT 9999 FEW073/// BKN096/// 21/09 Q1010
17:20
V
21 °C 10 km+ 9.700 ft 050° 050° 13 kt METAR EDWE 181520Z AUTO 05013KT 9999 SCT064/// SCT077/// BKN097/// 21/08 Q1010
16:50
V
23 °C 10 km+ - 060° 060° 11 kt METAR EDWE 181450Z AUTO 06011KT 030V090 9999 FEW069/// 23/08 Q1010
16:20
V
23 °C 10 km+ - 050° 050° 13 kt METAR EDWE 181420Z AUTO 05013KT CAVOK 23/08 Q1010
15:50
V
24 °C 10 km+ - 040° 040° 10 kt METAR EDWE 181350Z AUTO 04010KT 9999 FEW080/// 24/07 Q1010
15:20
V
23 °C 10 km+ - 010° 010° 8 kt METAR EDWE 181320Z AUTO 01008KT 330V060 9999 SCT075/// 23/04 Q1010
14:50
V
21 °C 10 km+ 6.900 ft 340° 340° 8 kt METAR EDWE 181250Z AUTO 34008KT 310V020 9999 FEW061/// BKN069/// 21/10 Q1011
14:20
V
21 °C 10 km+ 9.700 ft 330° 330° 9 kt METAR EDWE 181220Z AUTO 33009KT 300V030 9999 SCT069/// BKN097/// 21/10 Q1011
13:50
V
22 °C 10 km+ 6.200 ft 060° 060° 4 kt METAR EDWE 181150Z AUTO 06004KT 320V120 9999 BKN062/// BKN081/// 22/10 Q1011
13:20
V
22 °C 10 km+ 8.900 ft 350° 350° 3 kt METAR EDWE 181120Z AUTO 35003KT 300V090 9999 FEW061/// BKN089/// 22/09 Q1011
12:50
V
23 °C 10 km+ - 330° 330° 4 kt METAR EDWE 181050Z AUTO 33004KT 270V030 9999 SCT057/// 23/08 Q1011
12:20
V
22 °C 10 km+ - Var Var 3 kt METAR EDWE 181020Z AUTO VRB03KT CAVOK 22/09 Q1011
11:50
V
22 °C 10 km+ - 050° 050° 4 kt METAR EDWE 180950Z AUTO 05004KT 350V110 CAVOK 22/09 Q1011
11:20
V
21 °C 10 km+ - Var Var 3 kt METAR EDWE 180920Z AUTO VRB03KT CAVOK 21/09 Q1011
10:50
V
22 °C 10 km+ - Var Var 2 kt METAR EDWE 180850Z AUTO VRB02KT CAVOK 22/09 Q1011
10:20
V
22 °C 10 km+ - Var Var 2 kt METAR EDWE 180820Z AUTO VRB02KT CAVOK 22/10 Q1011
09:50
M
20 °C 6 km - Var Var 2 kt METAR EDWE 180750Z AUTO VRB02KT 6000 FEW100/// 20/12 Q1011
09:20
V
19 °C 10 km+ 10.000 ft Var Var 2 kt METAR EDWE 180720Z AUTO VRB02KT 9999 BKN100/// 19/12 Q1011
08:50
V
17 °C 10 km+ 10.000 ft 040° 040° 3 kt METAR EDWE 180650Z AUTO 04003KT 010V070 9999 OVC100/// 17/11 Q1011
08:20
V
15 °C 10 km+ 10.000 ft 050° 050° 4 kt METAR EDWE 180620Z AUTO 05004KT 9999 OVC100/// 15/11 Q1011
07:50
V
14 °C 10 km+ - 060° 060° 4 kt METAR EDWE 180550Z 06004KT CAVOK 14/11 Q1011
07:20
V
13 °C 10 km+ - 040° 040° 3 kt METAR EDWE 180520Z 04003KT CAVOK 13/11 Q1011
06:50
V
13 °C 10 km+ 9.900 ft 030° 030° 3 kt METAR EDWE 180450Z AUTO 03003KT 9999 OVC099/// 13/10 Q1010
06:20
V
13 °C 10 km+ 10.000 ft 050° 050° 3 kt METAR EDWE 180420Z AUTO 05003KT 9999 BKN100/// 13/10 Q1010
05:50
V
12 °C 10 km+ 9.600 ft 070° 070° 3 kt METAR EDWE 180350Z AUTO 07003KT 040V100 9999 BKN096/// 12/10 Q1010
05:20
V
12 °C 10 km+ 10.000 ft 040° 040° 2 kt METAR EDWE 180320Z AUTO 04002KT 9999 BKN100/// 12/09 Q1010
04:50
V
12 °C 10 km+ 9.900 ft 040° 040° 2 kt METAR EDWE 180250Z AUTO 04002KT 9999 BKN099/// 12/09 Q1010
04:20
V
13 °C 10 km+ - 080° 080° 3 kt METAR EDWE 180220Z AUTO 08003KT 030V110 9999 SCT099/// 13/09 Q1010
03:50
V
13 °C 10 km+ 9.800 ft 090° 090° 3 kt METAR EDWE 180150Z AUTO 09003KT 9999 BKN098/// 13/09 Q1009
03:20
V
13 °C 10 km+ 10.000 ft 110° 110° 4 kt METAR EDWE 180120Z AUTO 11004KT 9999 BKN100/// 13/09 Q1009
02:50
V
13 °C 10 km+ 9.700 ft 080° 080° 3 kt METAR EDWE 180050Z AUTO 08003KT 9999 BKN097/// 13/09 Q1009
02:20
V
12 °C 10 km+ - 070° 070° 2 kt METAR EDWE 180020Z AUTO 07002KT 9999 FEW099/// 12/09 Q1009
01:50
V
12 °C 10 km+ - Var Var 2 kt METAR EDWE 172350Z AUTO VRB02KT 9999 NCD 12/08 Q1009
01:20
V
15 °C 10 km+ - 070° 070° 5 kt METAR EDWE 172320Z AUTO 07005KT 9999 FEW100/// 15/09 Q1009
00:50
V
16 °C 10 km+ - 070° 070° 7 kt METAR EDWE 172250Z AUTO 07007KT 9999 FEW100/// 16/09 Q1009
00:20
V
16 °C 10 km+ - 070° 070° 7 kt METAR EDWE 172220Z AUTO 07007KT 9999 FEW100/// 16/09 Q1009

17 maggio 2024

Tempo Codice Tempo meteorologico Temp. Vista Base nuvolosa Vento METAR/SPECI
23:50
V
16 °C 10 km+ 10.000 ft 060° 060° 6 kt METAR EDWE 172150Z AUTO 06006KT 9999 BKN100/// 16/10 Q1009
23:20
V
17 °C 10 km+ - 060° 060° 8 kt METAR EDWE 172120Z AUTO 06008KT 9999 FEW110/// 17/10 Q1009
22:50
V
17 °C 10 km+ - 060° 060° 8 kt METAR EDWE 172050Z AUTO 06008KT 9999 NCD 17/10 Q1009
22:20
V
16 °C 10 km+ - 040° 040° 8 kt METAR EDWE 172020Z AUTO 04008KT 9999 NCD 16/11 Q1009
21:50
V
17 °C 10 km+ 10.000 ft 040° 040° 8 kt METAR EDWE 171950Z AUTO 04008KT 9999 BKN100/// 17/12 Q1009
21:20
V
18 °C 10 km+ 9.100 ft 020° 020° 8 kt METAR EDWE 171920Z AUTO 02008KT 9999 BKN091/// 18/13 Q1008
20:50
V
20 °C 10 km+ 8.800 ft 030° 030° 7 kt METAR EDWE 171850Z AUTO 03007KT 9999 BKN088/// BKN120/// 20/13 Q1008
20:20
V
20 °C 10 km+ 12.000 ft 050° 050° 6 kt METAR EDWE 171820Z AUTO 05006KT 9999 FEW100/// OVC120/// 20/13 Q1008
12:20
V
21 °C 10 km+ - 100° 100° 10 kt METAR EDWE 171020Z AUTO 10010KT CAVOK 21/09 Q1008
11:50
V
22 °C 10 km+ - 100° 100° 10 kt METAR EDWE 170950Z AUTO 10010KT CAVOK 22/10 Q1008
11:20
V
21 °C 10 km+ - 110° 110° 10 kt METAR EDWE 170920Z AUTO 11010KT 080V150 CAVOK 21/10 Q1008
10:50
V
21 °C 10 km+ - 100° 100° 12 kt METAR EDWE 170850Z AUTO 10012KT CAVOK 21/10 Q1008
10:20
V
20 °C 10 km+ - 090° 090° 12 kt METAR EDWE 170820Z AUTO 09012KT CAVOK 20/10 Q1008
09:50
V
20 °C 10 km+ - 090° 090° 12 kt METAR EDWE 170750Z AUTO 09012KT CAVOK 20/11 Q1008
09:20
V
19 °C 10 km+ - 080° 080° 9 kt METAR EDWE 170720Z 08009KT CAVOK 19/12 Q1008
08:50
V
17 °C 10 km+ - 060° 060° 6 kt METAR EDWE 170650Z 06006KT CAVOK 17/12 Q1008
08:20
V
17 °C 10 km+ - 070° 070° 6 kt METAR EDWE 170620Z 07006KT CAVOK 17/11 Q1008
07:50
V
16 °C 10 km+ - 070° 070° 6 kt METAR EDWE 170550Z 07006KT CAVOK 16/11 Q1008
07:20
M
15 °C 6 km - 060° 060° 6 kt METAR EDWE 170520Z 06006KT 6000 NSC 15/10 Q1008
06:50
V
15 °C 10 km+ - 070° 070° 6 kt METAR EDWE 170450Z 07006KT CAVOK 15/11 Q1008
06:20
V
14 °C 10 km+ - 070° 070° 6 kt METAR EDWE 170420Z 07006KT CAVOK 14/11 Q1008
05:50
V
14 °C 10 km+ - 070° 070° 6 kt METAR EDWE 170350Z AUTO 07006KT 9999 // NCD 14/11 Q1007
05:20
V
12 °C 10 km+ - 060° 060° 4 kt METAR EDWE 170320Z AUTO 06004KT 9999 // NCD 12/10 Q1007
04:50
V
13 °C 10 km+ - 070° 070° 4 kt METAR EDWE 170250Z AUTO 07004KT 9999 // NCD 13/11 Q1007
04:20
V
14 °C 10 km+ - 080° 080° 2 kt METAR EDWE 170220Z AUTO 08002KT 9999 // SCT087/// 14/11 Q1007
03:50
V
15 °C 10 km+ 11.000 ft 080° 080° 4 kt METAR EDWE 170150Z AUTO 08004KT 9999 // SCT084/// BKN110/// BKN140/// 15/12 Q1007
03:20
V
15 °C 10 km+ 8.800 ft 070° 070° 5 kt METAR EDWE 170120Z AUTO 07005KT 9999 // SCT070/// BKN088/// BKN140/// 15/12 Q1007
02:50
V
16 °C 10 km+ 8.200 ft 090° 090° 3 kt METAR EDWE 170050Z AUTO 09003KT 9999 // SCT068/// BKN082/// OVC110/// 16/12 Q1007
02:20
V
16 °C 10 km+ 12.000 ft 080° 080° 6 kt METAR EDWE 170020Z AUTO 08006KT 9999 // FEW070/// SCT091/// OVC120/// 16/12 Q1007
01:50
V
16 °C 10 km+ 8.400 ft 090° 090° 5 kt METAR EDWE 162350Z AUTO 09005KT 9999 // BKN084/// BKN110/// OVC150/// 16/13 Q1007
01:20
V
16 °C 10 km+ 8.900 ft 080° 080° 5 kt METAR EDWE 162320Z AUTO 08005KT 9999 // BKN089/// BKN140/// 16/13 Q1007
00:50
V
15 °C 10 km+ 14.000 ft 090° 090° 6 kt METAR EDWE 162250Z AUTO 09006KT 9999 // FEW083/// BKN140/// 15/13 Q1007
00:20
V
16 °C 10 km+ 8.900 ft 080° 080° 6 kt METAR EDWE 162220Z AUTO 08006KT 9999 // FEW067/// BKN089/// BKN150/// 16/13 Q1007

16 maggio 2024

Tempo Codice Tempo meteorologico Temp. Vista Base nuvolosa Vento METAR/SPECI
23:50
V
15 °C 10 km+ 14.000 ft 060° 060° 3 kt METAR EDWE 162150Z AUTO 06003KT 9999 // FEW065/// BKN140/// 15/14 Q1007
23:20
V
16 °C 10 km+ 14.000 ft 070° 070° 3 kt METAR EDWE 162120Z AUTO 07003KT 9999 // SCT084/// SCT098/// OVC140/// 16/14 Q1007
22:50
V
16 °C 10 km+ 8.200 ft 070° 070° 4 kt METAR EDWE 162050Z AUTO 07004KT 9999 // OVC082/// 16/14 Q1007
22:20
V
16 °C 10 km+ 8.300 ft 050° 050° 4 kt METAR EDWE 162020Z AUTO 05004KT 9999 // FEW071/// OVC083/// 16/15 Q1007
21:50
V
17 °C 10 km+ 8.500 ft Var Var 2 kt METAR EDWE 161950Z AUTO VRB02KT 9999 // OVC085/// 17/15 Q1007
21:20
V
16 °C 10 km+ 12.000 ft 110° 110° 2 kt METAR EDWE 161920Z AUTO 11002KT 9999 // FEW083/// SCT100/// OVC120/// 16/14 Q1007
20:50
V
17 °C 10 km+ 14.000 ft 110° 110° 3 kt METAR EDWE 161850Z AUTO 11003KT 060V190 9999 // FEW080/// SCT120/// BKN140/// 17/14 Q1007
20:20
V
17 °C 10 km+ 8.200 ft 170° 170° 3 kt METAR EDWE 161820Z AUTO 17003KT 130V210 9999 // BKN082/// BKN120/// 17/15 Q1006
13:50
V
24 °C 10 km+ - 110° 110° 16 kt METAR EDWE 161150Z AUTO 11016KT 090V150 9999 // NCD 24/09 Q1005
13:20
V
23 °C 10 km+ - 110° 110° 15 kt METAR EDWE 161120Z AUTO 11015KT 080V160 9999 // NCD 23/09 Q1005
12:50
V
23 °C 10 km+ - 110° 110° 15 kt METAR EDWE 161050Z AUTO 11015KT 9999 // NCD 23/09 Q1005
12:20
V
22 °C 10 km+ - 110° 110° 15 kt METAR EDWE 161020Z AUTO 11015KT 9999 // NCD 22/09 Q1005
11:50
V
22 °C 10 km+ - 100° 100° 13 kt METAR EDWE 160950Z AUTO 10013KT 9999 // NCD 22/09 Q1005
11:20
V
22 °C 10 km+ - 110° 110° 16 kt METAR EDWE 160920Z AUTO 11016KT 9999 // NCD 22/09 Q1005
10:50
V
22 °C 10 km+ - 090° 090° 17 kt METAR EDWE 160850Z AUTO 09017KT 9999 // NCD 22/09 Q1005
10:20
V
21 °C 10 km+ - 100° 100° 15 kt METAR EDWE 160820Z AUTO 10015KT 9999 // NCD 21/09 Q1005
09:50
V
20 °C 10 km+ - 100° 100° 16 kt METAR EDWE 160750Z AUTO 10016KT 9999 // NCD 20/09 Q1005
09:20
V
20 °C 10 km+ - 100° 100° 16 kt METAR EDWE 160720Z AUTO 10016KT 9999 // NCD 20/09 Q1005
08:50
V
19 °C 10 km+ - 090° 090° 15 kt METAR EDWE 160650Z AUTO 09015KT 9999 // NCD 19/09 Q1005
08:20
V
18 °C 10 km+ - 090° 090° 15 kt METAR EDWE 160620Z AUTO 09015KT 9999 // NCD 18/08 Q1005
07:50
V
18 °C 10 km+ - 090° 090° 14 kt METAR EDWE 160550Z AUTO 09014KT 9999 // NCD 18/08 Q1005
Segnala modifiche